Time;durP1;ratioP1;P1;durP2;ratioP2;P2;SDS_P1;SDS_P2;PMS_P1;PMS_P2;Temp;Humidity;BMP_temperature;BMP_pressure;BME280_temperature;BME280_humidity;BME280_pressure;Samples;Min_cycle;Max_cycle;Signal;HPM_P1;HPM_P2
2022/06/26 00:01:47;;;;;;;10.55;8.18;;;;;;;19.51;78.57;101104.41;5011810;28;20037;-81
2022/06/26 00:04:13;;;;;;;9.85;8.35;;;;;;;19.40;78.95;101098.38;5012079;28;20402;-81
2022/06/26 00:06:38;;;;;;;9.25;7.88;;;;;;;19.45;78.65;101099.19;5013549;28;20116;-82
2022/06/26 00:09:05;;;;;;;10.63;8.48;;;;;;;19.37;78.94;101106.50;5011859;28;20034;-81
2022/06/26 00:11:30;;;;;;;9.90;8.65;;;;;;;19.30;79.41;101115.56;5015360;28;20106;-82
2022/06/26 00:13:55;;;;;;;11.55;8.63;;;;;;;19.24;80.21;101114.78;4999905;28;20030;-81
2022/06/26 00:16:21;;;;;;;10.18;8.32;;;;;;;19.23;79.81;101110.34;5017014;28;20041;-83
2022/06/26 00:18:47;;;;;;;11.68;8.80;;;;;;;19.27;79.59;101117.41;5016940;28;20037;-82
2022/06/26 00:21:13;;;;;;;11.90;9.48;;;;;;;19.16;79.69;101114.06;5017335;28;20125;-82
2022/06/26 00:23:38;;;;;;;10.73;8.77;;;;;;;19.24;79.40;101122.84;5032214;28;20129;-82
2022/06/26 00:26:04;;;;;;;10.38;9.18;;;;;;;19.19;79.47;101113.13;5016890;28;20088;-82
2022/06/26 00:28:30;;;;;;;11.13;9.25;;;;;;;19.21;79.48;101122.88;5032349;28;20022;-82
2022/06/26 00:30:56;;;;;;;10.77;9.68;;;;;;;19.21;79.50;101122.88;5016916;28;20458;-82
2022/06/26 00:33:21;;;;;;;12.68;9.95;;;;;;;19.19;79.27;101123.84;5015526;28;20467;-83
2022/06/26 00:35:47;;;;;;;12.32;9.90;;;;;;;19.23;79.57;101123.75;5016872;28;20034;-82
2022/06/26 00:38:12;;;;;;;11.70;10.10;;;;;;;19.18;79.74;101132.78;5015573;28;20113;-82
2022/06/26 00:40:42;;;;;;;12.10;9.93;;;;;;;19.11;80.28;101141.88;5015702;28;20116;-82
2022/06/26 00:43:08;;;;;;;13.43;10.93;;;;;;;18.95;80.99;101135.91;5016634;28;20065;-82
2022/06/26 00:45:34;;;;;;;14.35;10.57;;;;;;;18.93;81.29;101143.13;5015220;28;20390;-82
2022/06/26 00:47:59;;;;;;;11.40;9.93;;;;;;;18.87;81.47;101140.53;5015226;28;20069;-81
2022/06/26 00:50:25;;;;;;;13.88;10.65;;;;;;;18.81;81.86;101144.22;5016617;28;20489;-82
2022/06/26 00:52:51;;;;;;;15.70;11.43;;;;;;;18.88;81.68;101161.03;5016622;28;20065;-82
2022/06/26 00:55:17;;;;;;;13.82;10.75;;;;;;;18.84;81.45;101157.53;5016643;28;20034;-82
2022/06/26 00:57:42;;;;;;;15.05;11.23;;;;;;;18.89;81.71;101174.41;5031480;28;20540;-82
2022/06/26 01:00:10;;;;;;;14.25;11.27;;;;;;;18.92;81.31;101171.66;5016418;28;20121;-82
2022/06/26 01:02:36;;;;;;;11.48;10.27;;;;;;;19.00;80.89;101164.38;5016065;28;20473;-82
2022/06/26 01:05:02;;;;;;;12.82;11.45;;;;;;;19.07;80.34;101164.28;5015184;28;20041;-82
2022/06/26 01:07:27;;;;;;;11.60;10.40;;;;;;;19.09;79.65;101157.94;5016132;28;20030;-82
2022/06/26 01:09:53;;;;;;;12.02;10.23;;;;;;;19.09;79.99;101168.66;5014799;28;20404;-82
2022/06/26 01:12:18;;;;;;;11.77;10.13;;;;;;;19.00;80.16;101168.84;5016077;28;20030;-82
2022/06/26 01:14:45;;;;;;;11.07;9.50;;;;;;;18.99;80.00;101169.78;5014664;28;20072;-82
2022/06/26 01:17:10;;;;;;;10.82;9.65;;;;;;;18.89;80.76;101178.91;5016163;28;20034;-82
2022/06/26 01:19:36;;;;;;;12.65;9.77;;;;;;;18.83;80.72;101168.28;5016059;28;20476;-82
2022/06/26 01:22:01;;;;;;;15.93;10.48;;;;;;;18.78;81.37;101171.03;5014095;28;20065;-82
2022/06/26 01:24:27;;;;;;;13.73;10.43;;;;;;;18.66;81.31;101180.13;5014373;28;20105;-82
2022/06/26 01:26:52;;;;;;;12.02;10.48;;;;;;;18.56;82.01;101189.25;5014664;28;20042;-82
2022/06/26 01:29:18;;;;;;;13.75;10.77;;;;;;;18.53;82.39;101190.16;5015710;28;20425;-82
2022/06/26 01:31:43;;;;;;;13.65;10.50;;;;;;;18.51;82.38;101192.00;5014489;28;20034;-82
2022/06/26 01:34:10;;;;;;;13.30;11.13;;;;;;;18.44;82.48;101184.97;5014458;28;20041;-81
2022/06/26 01:36:36;;;;;;;14.90;10.80;;;;;;;18.45;82.53;101192.06;5014361;28;20398;-82
2022/06/26 01:39:03;;;;;;;13.32;11.02;;;;;;;18.37;83.20;101183.31;5015569;28;20045;-82
2022/06/26 01:41:28;;;;;;;12.52;11.18;;;;;;;18.37;83.25;101191.34;5015696;28;20034;-82
2022/06/26 01:43:53;;;;;;;13.05;11.05;;;;;;;18.24;83.24;101189.75;5030536;28;20042;-82
2022/06/26 01:46:22;;;;;;;15.68;12.32;;;;;;;18.12;83.83;101182.81;5015719;28;20037;-82
2022/06/26 01:48:48;;;;;;;16.17;11.75;;;;;;;18.12;84.08;101188.16;5015439;28;20025;-82
2022/06/26 01:51:13;;;;;;;17.08;13.25;;;;;;;18.10;83.58;101179.25;5015474;28;20040;-82
2022/06/26 01:53:39;;;;;;;17.85;13.27;;;;;;;18.18;83.55;101179.16;5015162;28;20106;-82
2022/06/26 01:56:05;;;;;;;15.85;13.70;;;;;;;18.18;83.87;101192.53;5030793;28;20042;-82
2022/06/26 01:58:30;;;;;;;15.82;12.63;;;;;;;18.24;82.94;101181.72;5015749;28;20033;-82
2022/06/26 02:00:56;;;;;;;14.32;12.80;;;;;;;18.31;83.01;101186.06;5015353;28;20029;-82
2022/06/26 02:03:23;;;;;;;18.10;13.88;;;;;;;18.31;83.00;101177.16;5015070;28;20029;-83
2022/06/26 02:05:50;;;;;;;15.85;13.70;;;;;;;18.27;82.45;101177.19;5015337;28;20038;-82
2022/06/26 02:08:16;;;;;;;16.42;14.23;;;;;;;18.24;82.25;101176.34;5013943;28;20029;-82
2022/06/26 02:13:40;;;;;;;18.38;13.85;;;;;;;18.19;81.86;101155.03;5015254;28;20072;-82
2022/06/26 02:16:08;;;;;;;16.70;13.40;;;;;;;18.32;81.84;101171.78;5014836;28;20537;-82
2022/06/26 02:18:34;;;;;;;17.23;12.98;;;;;;;18.36;81.59;101157.44;5014763;28;20455;-82
2022/06/26 02:21:01;;;;;;;16.60;13.52;;;;;;;18.34;81.14;101151.25;5013806;28;20030;-82
2022/06/26 02:23:27;;;;;;;18.33;14.27;;;;;;;18.36;81.42;101160.13;5014636;28;20455;-82
2022/06/26 02:25:52;;;;;;;17.88;14.73;;;;;;;18.31;81.57;101156.63;5014750;28;20038;-82
2022/06/26 02:28:18;;;;;;;19.30;13.70;;;;;;;18.27;81.83;101166.50;5029981;28;20033;-82
2022/06/26 02:30:44;;;;;;;18.30;14.27;;;;;;;18.21;81.69;101144.34;5013543;28;20088;-82
2022/06/26 02:33:10;;;;;;;14.98;13.27;;;;;;;18.29;81.49;101166.50;5015031;28;20030;-81
2022/06/26 02:35:35;;;;;;;16.52;13.73;;;;;;;18.30;81.23;101162.91;5014546;28;20079;-82
2022/06/26 02:38:01;;;;;;;16.85;14.25;;;;;;;18.19;80.98;101157.72;5014940;28;20034;-82
2022/06/26 02:40:29;;;;;;;16.90;13.63;;;;;;;18.14;81.58;101177.41;5014744;28;20041;-82
2022/06/26 02:42:55;;;;;;;17.70;13.80;;;;;;;18.08;81.49;101188.22;5013406;28;20030;-83
2022/06/26 02:45:21;;;;;;;19.45;14.05;;;;;;;18.09;81.53;101196.22;5014557;28;20485;-82
2022/06/26 02:47:47;;;;;;;17.25;13.15;;;;;;;17.99;81.57;101183.91;5013376;28;20042;-82
2022/06/26 02:50:12;;;;;;;17.73;14.40;;;;;;;17.98;82.33;101190.13;5029389;28;20386;-82
2022/06/26 02:52:38;;;;;;;20.08;14.85;;;;;;;17.93;nan;101198.22;5014176;28;20065;-82
2022/06/26 02:55:04;;;;;;;17.17;13.82;;;;;;;17.85;82.45;101194.75;5013106;28;20065;-82
2022/06/26 02:57:30;;;;;;;18.33;12.65;;;;;;;17.75;82.19;101201.16;5013096;28;20034;-82
2022/06/26 02:59:55;;;;;;;19.02;12.50;;;;;;;17.69;81.78;101202.09;5014151;28;20030;-82
2022/06/26 03:02:21;;;;;;;16.92;11.43;;;;;;;17.53;81.63;101204.06;5013903;28;20088;-83
2022/06/26 03:04:46;;;;;;;15.35;10.00;;;;;;;17.52;80.40;101196.06;5029501;28;20034;-82
2022/06/26 03:07:12;;;;;;;13.18;8.93;;;;;;;17.55;80.41;101213.84;5012669;28;20031;-82
2022/06/26 03:09:37;;;;;;;16.58;9.82;;;;;;;17.50;80.17;101214.78;5012787;28;20065;-82
2022/06/26 03:12:03;;;;;;;15.13;9.57;;;;;;;17.53;80.27;101206.72;5012599;28;20041;-82
2022/06/26 03:14:28;;;;;;;17.10;9.50;;;;;;;17.53;80.02;101205.84;5012651;28;20038;-82
2022/06/26 03:16:54;;;;;;;13.10;9.52;;;;;;;17.52;80.14;101222.78;5012539;28;20064;-82
2022/06/26 03:19:19;;;;;;;15.27;10.00;;;;;;;17.50;80.06;101224.56;5028986;28;20034;-82
2022/06/26 03:21:45;;;;;;;11.98;8.55;;;;;;;17.52;80.21;101223.66;5014601;28;20033;-82
2022/06/26 03:24:10;;;;;;;15.88;10.18;;;;;;;17.55;80.06;101229.88;5014040;28;20064;-82
2022/06/26 03:26:37;;;;;;;14.20;10.32;;;;;;;17.47;80.26;101236.22;5014449;28;20381;-82
2022/06/26 03:29:05;;;;;;;16.20;10.25;;;;;;;17.43;80.45;101238.91;5014376;28;20030;-82
2022/06/26 03:31:31;;;;;;;15.27;10.60;;;;;;;17.34;80.83;101222.97;5013967;28;20026;-82
2022/06/26 03:33:57;;;;;;;13.40;10.70;;;;;;;17.23;81.27;101233.78;5013586;28;20032;-82
2022/06/26 03:36:23;;;;;;;16.67;11.35;;;;;;;17.17;81.46;101240.09;5014102;28;20060;-82
2022/06/26 03:38:49;;;;;;;15.20;10.95;;;;;;;17.13;81.57;101237.44;5012816;28;20062;-82
2022/06/26 03:41:15;;;;;;;15.98;10.25;;;;;;;17.12;81.46;101252.59;5013793;28;20112;-82
2022/06/26 03:43:41;;;;;;;15.10;10.25;;;;;;;17.05;82.03;101268.69;5013718;28;20033;-82
2022/06/26 03:46:06;;;;;;;14.32;10.18;;;;;;;17.00;81.82;101256.28;5013362;28;20088;-82
2022/06/26 03:48:32;;;;;;;12.77;9.65;;;;;;;17.13;81.51;101277.50;5013605;28;20026;-82
2022/06/26 03:50:57;;;;;;;17.77;10.40;;;;;;;17.07;81.08;101272.22;5013656;28;20041;-82
2022/06/26 03:53:23;;;;;;;11.73;8.98;;;;;;;17.10;81.10;101269.53;5013937;28;20044;-83
2022/06/26 03:55:49;;;;;;;14.10;9.63;;;;;;;17.08;81.12;101269.53;5013657;28;20068;-82
2022/06/26 03:58:14;;;;;;;14.38;9.88;;;;;;;17.07;81.05;101272.22;5013288;28;20137;-82
2022/06/26 04:00:40;;;;;;;14.50;9.25;;;;;;;16.97;80.96;101268.75;5013577;28;20360;-81
2022/06/26 04:03:06;;;;;;;13.70;9.18;;;;;;;17.02;81.23;101281.16;5013000;28;20034;-82
2022/06/26 04:05:34;;;;;;;13.82;9.02;;;;;;;16.95;81.31;101274.09;5012106;28;20390;-82
2022/06/26 04:08:00;;;;;;;14.10;9.05;;;;;;;16.87;81.38;101267.94;5011921;28;20060;-82
2022/06/26 04:10:25;;;;;;;14.65;9.27;;;;;;;16.95;81.44;101262.53;5013395;28;20513;-82
2022/06/26 04:12:51;;;;;;;15.68;9.13;;;;;;;16.97;81.52;101260.75;5028548;28;20030;-82
2022/06/26 04:15:17;;;;;;;14.45;8.93;;;;;;;16.95;81.38;101262.53;5012201;28;20034;-82
2022/06/26 04:17:42;;;;;;;15.85;9.40;;;;;;;16.84;81.59;101262.63;5013239;28;20131;-82
2022/06/26 04:20:08;;;;;;;14.93;9.18;;;;;;;16.87;81.57;101267.94;5013156;28;20125;-82
2022/06/26 04:22:34;;;;;;;12.85;8.40;;;;;;;16.88;81.27;101267.06;4995564;28;20030;-82
2022/06/26 04:25:00;;;;;;;13.20;8.60;;;;;;;16.88;81.07;101279.53;5013491;28;20034;-82
2022/06/26 04:27:25;;;;;;;17.80;8.88;;;;;;;16.82;81.40;101269.75;5013063;28;20034;-82
2022/06/26 04:29:51;;;;;;;21.58;8.63;;;;;;;16.87;81.33;101272.38;5011940;28;20089;-84
2022/06/26 04:32:16;;;;;;;19.50;8.43;;;;;;;16.93;81.07;101289.25;5012892;28;20041;-82
2022/06/26 04:34:42;;;;;;;13.68;8.38;;;;;;;17.01;81.03;101303.44;5012172;28;20034;-82
2022/06/26 04:37:07;;;;;;;12.02;8.57;;;;;;;16.91;81.33;101304.38;5013227;28;20038;-82
2022/06/26 04:39:32;;;;;;;16.95;8.20;;;;;;;16.89;81.94;101310.66;5011729;28;20467;-82
2022/06/26 04:41:58;;;;;;;15.35;7.95;;;;;;;16.92;81.80;101310.63;5013026;28;20037;-82
2022/06/26 04:44:23;;;;;;;13.27;7.55;;;;;;;16.78;81.99;101313.38;5011865;28;20033;-83
2022/06/26 04:46:48;;;;;;;12.88;7.80;;;;;;;16.63;82.43;101314.34;5012966;28;20121;-81
2022/06/26 04:49:14;;;;;;;11.90;7.75;;;;;;;16.74;81.80;101324.97;5013235;28;20034;-82
2022/06/26 04:51:40;;;;;;;14.68;8.30;;;;;;;16.72;nan;101326.75;5011561;28;20470;-82
2022/06/26 04:54:09;;;;;;;12.30;8.05;;;;;;;16.64;83.26;101316.13;5013132;28;20030;-82
2022/06/26 04:56:35;;;;;;;14.30;7.85;;;;;;;16.70;83.25;101324.09;5028274;28;20428;-82
2022/06/26 04:59:01;;;;;;;19.95;8.35;;;;;;;16.76;82.92;101318.75;5014484;28;20034;-82
2022/06/26 05:01:27;;;;;;;15.88;8.02;;;;;;;16.84;82.73;101316.03;5016349;28;20212;-82
2022/06/26 05:03:53;;;;;;;12.95;7.97;;;;;;;16.88;82.94;101322.22;5015951;28;20549;-83
2022/06/26 05:06:20;;;;;;;13.52;7.90;;;;;;;16.89;82.99;101319.53;5031657;28;20124;-82
2022/06/26 05:08:46;;;;;;;13.10;8.07;;;;;;;16.95;82.75;101337.28;5016213;28;20033;-82
2022/06/26 05:11:12;;;;;;;11.65;7.97;;;;;;;16.99;82.85;101325.69;5016311;28;20097;-82
2022/06/26 05:13:37;;;;;;;13.50;8.00;;;;;;;17.07;83.57;101333.63;5014945;28;20038;-82
2022/06/26 05:16:03;;;;;;;14.45;8.00;;;;;;;17.16;82.42;101339.78;5014975;28;20056;-82
2022/06/26 05:18:28;;;;;;;18.45;7.03;;;;;;;17.20;81.34;101328.16;5015984;28;20499;-82
2022/06/26 05:20:54;;;;;;;14.57;7.30;;;;;;;17.24;80.55;101342.38;5014586;28;20083;-82
2022/06/26 05:23:20;;;;;;;14.73;7.53;;;;;;;17.16;80.74;101341.56;4998562;28;20111;-82
2022/06/26 05:25:45;;;;;;;11.20;7.35;;;;;;;17.22;80.36;101341.53;5015967;28;20554;-82
2022/06/26 05:28:11;;;;;;;14.63;7.72;;;;;;;17.12;79.47;101337.16;5016325;28;20037;-82
2022/06/26 05:30:38;;;;;;;14.68;7.45;;;;;;;17.09;79.98;101334.53;5015694;28;20034;-82
2022/06/26 05:33:03;;;;;;;13.82;7.90;;;;;;;17.03;79.75;101332.78;5015725;28;20030;-82
2022/06/26 05:35:29;;;;;;;14.85;8.35;;;;;;;17.07;80.81;101318.50;5015519;28;20393;-81
2022/06/26 05:37:55;;;;;;;14.63;7.85;;;;;;;17.28;80.59;101336.13;5015815;28;20038;-82
2022/06/26 05:40:21;;;;;;;16.33;8.73;;;;;;;17.31;79.93;101325.41;5015555;28;20030;-82
2022/06/26 05:42:46;;;;;;;14.75;8.68;;;;;;;17.49;79.44;101337.72;5015547;28;20041;-82
2022/06/26 05:45:12;;;;;;;15.43;7.95;;;;;;;17.61;78.77;101342.06;5015711;28;20378;-82
2022/06/26 05:47:37;;;;;;;16.67;8.15;;;;;;;17.60;78.74;101341.16;5015572;28;20030;-81
2022/06/26 05:50:03;;;;;;;13.13;7.55;;;;;;;17.68;77.86;101352.63;5014614;28;20046;-81
2022/06/26 05:52:29;;;;;;;17.92;7.70;;;;;;;17.71;77.54;101362.44;5015457;28;20095;-81
2022/06/26 05:54:54;;;;;;;12.10;7.25;;;;;;;17.80;77.25;101375.72;5015578;28;20037;-82
2022/06/26 05:57:20;;;;;;;14.55;7.78;;;;;;;17.76;77.74;101372.19;5030489;28;20470;-82
2022/06/26 05:59:46;;;;;;;13.25;7.75;;;;;;;17.90;77.66;101379.19;5014100;28;20105;-81
2022/06/26 06:02:12;;;;;;;15.98;8.27;;;;;;;17.85;76.96;101383.69;5014161;28;20060;-81
2022/06/26 06:04:37;;;;;;;13.32;7.68;;;;;;;17.87;77.27;101379.22;5015349;28;20034;-82
2022/06/26 06:07:03;;;;;;;14.70;7.88;;;;;;;17.80;77.37;101359.69;5015228;28;20026;-82
2022/06/26 06:09:29;;;;;;;14.48;7.65;;;;;;;18.05;76.91;101386.16;5014619;28;20467;-82
2022/06/26 06:11:54;;;;;;;15.63;7.72;;;;;;;18.18;75.00;101394.00;5014909;28;20065;-82
2022/06/26 06:14:20;;;;;;;18.25;7.20;;;;;;;18.25;75.86;101398.41;5015218;28;20037;-81
2022/06/26 06:16:45;;;;;;;14.45;7.40;;;;;;;18.33;75.20;101397.41;5013596;28;20121;-81
2022/06/26 06:19:10;;;;;;;16.73;6.88;;;;;;;18.38;73.76;101384.88;5014682;28;20037;-82
2022/06/26 06:21:36;;;;;;;14.80;7.00;;;;;;;18.31;75.30;101386.72;5014958;28;20041;-82
2022/06/26 06:24:01;;;;;;;16.50;7.20;;;;;;;18.12;74.92;101377.19;5030145;28;20041;-82
2022/06/26 06:26:27;;;;;;;15.63;7.28;;;;;;;18.16;76.18;101387.81;5013589;28;20038;-82
2022/06/26 06:28:52;;;;;;;10.32;6.43;;;;;;;18.19;74.86;101382.41;5014964;28;20386;-81
2022/06/26 06:31:17;;;;;;;12.63;6.38;;;;;;;18.36;75.07;101390.22;5013588;28;20036;-81
2022/06/26 06:33:43;;;;;;;15.38;6.75;;;;;;;18.47;74.80;101379.41;5014474;28;20034;-81
2022/06/26 06:36:08;;;;;;;10.70;6.70;;;;;;;18.49;73.32;101377.56;5016148;28;20034;-80
2022/06/26 06:38:34;;;;;;;11.07;6.60;;;;;;;18.65;74.19;101383.59;5014915;28;20113;-81
2022/06/26 06:41:00;;;;;;;12.90;6.18;;;;;;;18.71;72.92;101399.59;5014595;28;20026;-81
2022/06/26 06:43:25;;;;;;;10.75;6.60;;;;;;;18.73;73.57;101395.13;5014517;28;20371;-81
2022/06/26 06:45:51;;;;;;;9.18;6.03;;;;;;;18.56;72.41;101392.66;5014819;28;20489;-81
2022/06/26 06:48:16;;;;;;;13.52;6.43;;;;;;;18.51;73.91;101400.75;5014662;28;20442;-81
2022/06/26 06:50:41;;;;;;;9.93;6.18;;;;;;;18.56;73.16;101407.84;4996880;28;20180;-81
2022/06/26 06:53:07;;;;;;;10.00;5.90;;;;;;;18.58;74.16;101424.75;5014489;28;20053;-81
2022/06/26 06:55:33;;;;;;;10.57;6.05;;;;;;;18.57;75.10;101436.34;5029536;28;20030;-81
2022/06/26 06:57:59;;;;;;;14.30;6.35;;;;;;;18.54;74.31;101437.28;5014360;28;20034;-82
2022/06/26 07:00:24;;;;;;;12.85;6.20;;;;;;;18.53;73.81;101436.38;5014142;28;20034;-82
2022/06/26 07:02:50;;;;;;;11.02;6.10;;;;;;;18.62;75.00;101458.59;5013973;28;20034;-82
2022/06/26 07:05:19;;;;;;;10.80;6.22;;;;;;;18.71;74.24;101464.78;5013953;28;20561;-82
2022/06/26 07:07:44;;;;;;;9.18;5.97;;;;;;;18.85;74.08;101469.94;5014171;28;20041;-82
2022/06/26 07:10:10;;;;;;;10.65;6.10;;;;;;;18.87;72.51;101468.09;5014281;28;20050;-82
2022/06/26 07:12:36;;;;;;;12.55;6.72;;;;;;;19.06;73.96;101467.84;5012759;28;20490;-82
2022/06/26 07:15:02;;;;;;;10.30;5.63;;;;;;;19.19;72.40;101477.50;5014323;28;20030;-81
2022/06/26 07:17:27;;;;;;;12.13;5.90;;;;;;;19.42;71.97;101472.66;5013870;28;20425;-82
2022/06/26 07:19:52;;;;;;;9.48;5.53;;;;;;;19.60;70.95;101482.19;5013919;28;20030;-82
2022/06/26 07:22:18;;;;;;;9.35;5.65;;;;;;;19.58;71.70;101472.44;5012262;28;20049;-81
2022/06/26 07:24:43;;;;;;;10.63;5.75;;;;;;;19.73;71.60;101474.88;5014044;28;20125;-81
2022/06/26 07:27:09;;;;;;;10.63;5.20;;;;;;;19.67;70.17;101470.50;5029140;28;20516;-82
2022/06/26 07:29:35;;;;;;;8.40;5.20;;;;;;;19.76;71.68;101456.06;5029070;28;20202;-82
2022/06/26 07:32:00;;;;;;;8.30;5.05;;;;;;;19.95;70.32;101467.31;5012541;28;20045;-82
2022/06/26 07:34:26;;;;;;;9.05;4.68;;;;;;;20.06;69.52;101473.41;5012618;28;20034;-82
2022/06/26 07:36:52;;;;;;;8.55;5.05;;;;;;;20.02;68.71;101475.25;5013952;28;20030;-83
2022/06/26 07:39:19;;;;;;;8.88;5.10;;;;;;;20.10;68.82;101487.66;5012500;28;20034;-81
2022/06/26 07:41:46;;;;;;;9.68;5.20;;;;;;;20.08;69.50;101486.78;5012590;28;20148;-82
2022/06/26 07:44:12;;;;;;;8.75;4.97;;;;;;;19.95;68.40;101476.25;4996061;28;20129;-81
2022/06/26 07:46:38;;;;;;;9.73;5.22;;;;;;;19.94;68.75;101465.56;5012222;28;20113;-82
2022/06/26 07:49:05;;;;;;;9.43;4.85;;;;;;;19.87;68.29;101480.00;5013591;28;20117;-81
2022/06/26 07:51:31;;;;;;;10.52;4.88;;;;;;;19.93;68.66;101470.06;5013641;28;20033;-82
2022/06/26 07:53:56;;;;;;;9.70;4.70;;;;;;;20.04;68.70;101479.69;5013568;28;20026;-81
2022/06/26 07:56:22;;;;;;;9.48;4.90;;;;;;;20.09;68.11;101481.41;5028880;28;20356;-81
2022/06/26 07:58:48;;;;;;;9.45;4.55;;;;;;;20.17;68.13;101484.81;5028664;28;20075;-81
2022/06/26 08:01:13;;;;;;;8.50;4.50;;;;;;;20.17;68.43;101487.50;5013461;28;20069;-81
2022/06/26 08:03:39;;;;;;;8.98;4.57;;;;;;;20.21;68.29;101491.91;5013313;28;20026;-81
2022/06/26 08:06:04;;;;;;;8.45;4.78;;;;;;;20.24;68.20;101499.88;5013524;28;20065;-81
2022/06/26 08:08:30;;;;;;;9.07;4.78;;;;;;;20.20;67.57;101491.91;5012603;28;20042;-81
2022/06/26 08:10:56;;;;;;;8.48;4.40;;;;;;;20.09;67.65;101489.44;5013237;28;20494;-81
2022/06/26 08:13:21;;;;;;;7.60;4.60;;;;;;;20.07;68.03;101503.78;5013468;28;20485;-83
2022/06/26 08:15:46;;;;;;;8.38;4.20;;;;;;;20.05;67.95;101501.16;5013451;28;20030;-82
2022/06/26 08:18:12;;;;;;;7.80;4.65;;;;;;;19.88;68.66;101492.50;5013298;28;20060;-81
2022/06/26 08:20:38;;;;;;;8.13;4.97;;;;;;;19.86;68.71;101502.38;5013380;28;20121;-81
2022/06/26 08:23:03;;;;;;;7.90;4.80;;;;;;;19.83;69.18;101503.31;5013113;28;20030;-82
2022/06/26 08:25:29;;;;;;;9.60;5.00;;;;;;;19.72;68.89;101502.59;5012065;28;20030;-82
2022/06/26 08:27:55;;;;;;;11.68;5.20;;;;;;;19.51;69.50;101507.34;5013174;28;20040;-82
2022/06/26 08:30:20;;;;;;;8.18;4.72;;;;;;;19.40;70.10;101508.44;5013063;28;20053;-82
2022/06/26 08:32:46;;;;;;;7.15;5.00;;;;;;;19.34;70.94;101513.88;5015207;28;20045;-82
2022/06/26 08:35:13;;;;;;;9.02;4.85;;;;;;;19.39;70.96;101503.97;5017039;28;20072;-81
2022/06/26 08:37:39;;;;;;;9.68;4.95;;;;;;;19.46;70.06;101498.50;5032216;28;20088;-81
2022/06/26 08:40:05;;;;;;;10.02;4.63;;;;;;;19.51;69.26;101502.00;5016687;28;20038;-81
2022/06/26 08:42:31;;;;;;;9.65;4.85;;;;;;;19.48;68.11;101491.31;5015670;28;20109;-82
2022/06/26 08:44:58;;;;;;;11.05;4.90;;;;;;;19.54;69.83;101492.16;5016764;28;20382;-82
2022/06/26 08:47:25;;;;;;;11.98;4.50;;;;;;;19.62;69.94;101509.03;5031695;28;20037;-82
2022/06/26 08:49:52;;;;;;;7.03;4.65;;;;;;;19.58;68.63;101524.25;5016476;28;20038;-81
2022/06/26 08:52:20;;;;;;;7.40;4.55;;;;;;;19.58;68.90;101518.00;5016548;28;20045;-81
2022/06/26 08:54:47;;;;;;;12.18;4.88;;;;;;;19.41;69.09;101513.78;5016713;28;20037;-82
2022/06/26 08:57:13;;;;;;;7.00;4.15;;;;;;;19.27;69.35;101521.13;5016300;28;20061;-81
2022/06/26 08:59:42;;;;;;;8.27;4.60;;;;;;;19.19;69.62;101518.56;5031747;28;20473;-82
2022/06/26 09:02:07;;;;;;;10.00;4.57;;;;;;;19.30;69.40;101520.19;5015949;28;20101;-83
2022/06/26 09:04:33;;;;;;;8.13;4.22;;;;;;;19.34;69.61;101506.72;5016420;28;20431;-83
2022/06/26 09:06:58;;;;;;;6.53;4.25;;;;;;;19.27;66.76;101511.31;5015157;28;20030;-82
2022/06/26 09:09:27;;;;;;;7.60;3.97;;;;;;;19.39;67.77;101522.75;5014878;28;20433;-83
2022/06/26 09:12:00;;;;;;;8.77;3.80;;;;;;;19.47;67.31;101523.53;5016165;28;20115;-83
2022/06/26 09:14:27;;;;;;;5.90;3.55;;;;;;;19.63;67.05;101522.41;5014862;28;20030;-82
2022/06/26 09:16:53;;;;;;;7.45;3.67;;;;;;;19.73;66.43;101510.63;5031109;28;20030;-83
2022/06/26 09:19:24;;;;;;;6.32;3.55;;;;;;;19.73;65.42;101507.06;5031509;28;20053;-81
2022/06/26 09:21:51;;;;;;;12.20;3.60;;;;;;;19.78;65.72;101518.56;5016190;28;20139;-82
2022/06/26 09:24:20;;;;;;;5.25;3.40;;;;;;;19.76;65.17;101518.63;5014762;28;20044;-82
2022/06/26 09:27:00;;;;;;;6.22;3.38;;;;;;;19.71;65.07;101508.88;5015674;28;20030;-82
2022/06/26 09:29:26;;;;;;;8.25;3.78;;;;;;;19.63;65.79;101500.06;5031225;28;20574;-81
2022/06/26 09:31:51;;;;;;;9.88;3.80;;;;;;;19.66;66.55;101500.91;5015834;28;20105;-82
2022/06/26 09:34:24;;;;;;;6.15;3.33;;;;;;;19.81;65.33;101513.16;5014246;28;20092;-82
2022/06/26 09:37:01;;;;;;;5.20;3.20;;;;;;;19.84;64.63;101529.22;5015720;28;20113;-82
2022/06/26 09:39:26;;;;;;;4.43;3.38;;;;;;;19.83;64.99;101529.22;5013781;28;20036;-82
2022/06/26 09:41:52;;;;;;;8.10;3.72;;;;;;;19.87;64.47;101523.81;5015496;28;20034;-83
2022/06/26 09:44:18;;;;;;;6.20;3.33;;;;;;;19.89;64.68;101526.47;5013611;28;20065;-81
2022/06/26 09:46:44;;;;;;;5.45;3.20;;;;;;;19.96;64.17;101522.78;5015398;28;20038;-81
2022/06/26 09:49:10;;;;;;;6.32;3.28;;;;;;;19.96;63.04;101514.72;5015217;28;20084;-80
2022/06/26 09:51:36;;;;;;;4.70;3.10;;;;;;;19.93;63.38;101529.06;5015409;28;20445;-81
2022/06/26 09:54:03;;;;;;;6.75;3.38;;;;;;;19.82;63.96;101528.34;5013917;28;20038;-81
2022/06/26 09:56:29;;;;;;;8.90;3.42;;;;;;;19.80;63.75;101537.34;5015401;28;20057;-82
2022/06/26 09:58:57;;;;;;;6.30;3.80;;;;;;;19.83;63.73;101532.81;5015323;28;20462;-82
2022/06/26 10:06:54;;;;;;;9.15;3.63;;;;;;;19.86;63.59;101553.31;5015389;28;20041;-82
2022/06/26 10:09:21;;;;;;;7.13;3.47;;;;;;;19.98;63.49;101542.41;5014368;28;20402;-82
2022/06/26 10:11:46;;;;;;;5.70;3.28;;;;;;;20.14;64.00;101541.22;4997538;28;20470;-81
2022/06/26 10:14:23;;;;;;;9.15;3.90;;;;;;;20.34;64.20;101548.00;5014565;28;20041;-80
2022/06/26 10:17:35;;;;;;;7.43;2.78;;;;;;;20.40;63.19;101556.84;5015029;28;20079;-80
2022/06/26 10:20:06;;;;;;;9.18;2.78;;;;;;;20.38;59.92;101564.03;5010799;28;20042;-80
2022/06/26 10:22:40;;;;;;;5.15;2.58;;;;;;;20.20;60.67;101564.38;5014637;28;20458;-80
2022/06/26 10:25:05;;;;;;;5.78;2.90;;;;;;;20.22;61.50;101566.13;5014759;28;20544;-81
2022/06/26 10:27:33;;;;;;;8.80;3.88;;;;;;;20.33;61.99;101565.03;5014533;28;20030;-79
2022/06/26 10:30:07;;;;;;;5.15;2.85;;;;;;;20.47;61.62;101554.91;5014642;28;20108;-81
2022/06/26 10:32:33;;;;;;;4.40;3.00;;;;;;;20.48;60.80;101557.63;5014507;28;20489;-81
2022/06/26 10:34:58;;;;;;;5.38;3.00;;;;;;;20.51;60.38;101559.34;5014581;28;20034;-81
2022/06/26 10:37:24;;;;;;;6.00;2.95;;;;;;;20.54;62.08;101567.34;5013211;28;20092;-81
2022/06/26 10:39:52;;;;;;;7.68;3.40;;;;;;;20.48;62.55;101572.84;5014296;28;20040;-81
2022/06/26 10:45:06;;;;;;;9.77;3.28;;;;;;;20.42;62.28;101565.75;5014570;28;20068;-81
2022/06/26 10:47:49;;;;;;;7.13;3.50;;;;;;;20.52;62.46;101560.28;5014549;28;20034;-81
2022/06/26 10:50:36;;;;;;;5.15;3.30;;;;;;;20.46;62.90;101562.09;5014680;28;20034;-80
2022/06/26 10:53:40;;;;;;;8.80;3.85;;;;;;;20.59;63.24;101565.47;5014529;28;20041;-81
2022/06/26 10:56:07;;;;;;;6.40;3.50;;;;;;;20.71;62.55;101558.97;4975562;28;20164;-81
2022/06/26 10:58:35;;;;;;;6.50;3.28;;;;;;;20.80;61.85;101568.66;4992334;28;20386;-81
2022/06/26 11:01:04;;;;;;;5.85;3.30;;;;;;;20.80;61.32;101547.16;5002727;28;20040;-81
2022/06/26 11:03:31;;;;;;;10.38;3.65;;;;;;;20.65;60.42;101564.50;5013726;28;20382;-81
2022/06/26 11:05:58;;;;;;;8.95;3.30;;;;;;;20.53;61.16;101570.09;5014277;28;20069;-80
2022/06/26 11:08:25;;;;;;;11.27;3.30;;;;;;;20.54;61.24;101575.41;5014163;28;20065;-81
2022/06/26 11:10:50;;;;;;;10.68;3.40;;;;;;;20.57;62.79;101567.31;5013483;28;20057;-80
2022/06/26 11:13:15;;;;;;;7.80;3.22;;;;;;;20.42;61.79;101554.13;5013611;28;20042;-81
2022/06/26 11:15:43;;;;;;;8.68;3.25;;;;;;;20.60;62.46;101559.22;5013532;28;20135;-81
2022/06/26 11:18:09;;;;;;;9.63;3.05;;;;;;;20.73;61.58;101547.31;5013806;28;20046;-81
2022/06/26 11:20:54;;;;;;;7.75;3.22;;;;;;;20.93;62.04;101544.19;5013843;28;20116;-80
2022/06/26 11:23:21;;;;;;;5.50;2.63;;;;;;;20.99;58.20;101549.44;5013765;28;20034;-79
2022/06/26 11:25:49;;;;;;;8.38;2.90;;;;;;;20.94;59.11;101537.91;5013467;28;20030;-79